createdAt,value
2022-11-18T00:01:24.998Z,99049.28
2022-11-18T00:03:53.559Z,99058.47
2022-11-18T00:06:24.126Z,99059.75
2022-11-18T00:08:52.026Z,99056.72
2022-11-18T00:11:35.617Z,99065.94
2022-11-18T00:14:23.207Z,99069.84
2022-11-18T00:16:58.173Z,99072.09
2022-11-18T00:19:27.363Z,99079.44
2022-11-18T00:21:55.130Z,99078.06
2022-11-18T00:24:25.112Z,99075.88
2022-11-18T00:26:53.807Z,99077.13
2022-11-18T00:29:22.473Z,99083.53
2022-11-18T00:31:50.471Z,99085.63
2022-11-18T00:34:20.095Z,99079.84
2022-11-18T00:36:50.222Z,99078.31
2022-11-18T00:39:20.742Z,99081.38
2022-11-18T00:42:06.908Z,99092.22
2022-11-18T00:44:35.152Z,99097.09
2022-11-18T00:47:02.716Z,99097.53
2022-11-18T00:49:31.842Z,99103.25
2022-11-18T00:51:59.466Z,99109.63
2022-11-18T00:54:27.583Z,99106.59
2022-11-18T00:56:55.696Z,99110.38
2022-11-18T00:59:23.403Z,99106.91
2022-11-18T01:01:52.690Z,99104.53
2022-11-18T01:04:22.107Z,99107.31
2022-11-18T01:06:52.312Z,99107.59
2022-11-18T01:09:23.570Z,99111.19
2022-11-18T01:12:08.584Z,99112.19
2022-11-18T01:14:36.509Z,99114.28
2022-11-18T01:17:04.137Z,99110.13
2022-11-18T01:19:31.886Z,99116.53
2022-11-18T01:22:03.196Z,99115.97
2022-11-18T01:24:31.913Z,99125.66
2022-11-18T01:26:59.667Z,99129.56
2022-11-18T01:29:27.698Z,99127.91
2022-11-18T01:32:23.422Z,99130.69
2022-11-18T01:34:46.657Z,99131.50
2022-11-18T01:37:19.012Z,99131.66
2022-11-18T01:39:47.210Z,99132.47
2022-11-18T01:42:17.345Z,99128.03
2022-11-18T01:45:16.593Z,99135.94
2022-11-18T01:47:50.144Z,99136.78
2022-11-18T01:50:21.036Z,99140.25
2022-11-18T01:52:58.478Z,99139.25
2022-11-18T01:55:29.826Z,99139.25
2022-11-18T01:58:02.674Z,99140.09
2022-11-18T02:00:30.258Z,99144.53
2022-11-18T02:03:00.294Z,99138.59
2022-11-18T02:05:29.033Z,99144.69
2022-11-18T02:07:59.073Z,99143.84
2022-11-18T02:10:29.834Z,99148.97
2022-11-18T02:12:58.799Z,99148.00
2022-11-18T02:15:40.261Z,99154.09
2022-11-18T02:18:18.176Z,99151.47
2022-11-18T02:20:49.534Z,99159.38
2022-11-18T02:24:03.549Z,99155.06
2022-11-18T02:26:59.112Z,99157.72
2022-11-18T02:29:32.384Z,99162.84
2022-11-18T02:32:05.131Z,99169.81
2022-11-18T02:34:40.872Z,99168.81
2022-11-18T02:37:16.606Z,99166.88
2022-11-18T02:39:49.046Z,99173.78
2022-11-18T02:42:18.080Z,99167.44
2022-11-18T02:44:53.639Z,99163.97
2022-11-18T02:47:25.256Z,99174.38
2022-11-18T02:49:58.108Z,99178.66
2022-11-18T02:52:28.190Z,99177.00
2022-11-18T02:55:02.138Z,99175.03
2022-11-18T02:57:32.194Z,99175.88
2022-11-18T03:00:02.092Z,99177.41
2022-11-18T03:02:29.786Z,99171.00
2022-11-18T03:04:59.350Z,99183.94
2022-11-18T03:07:31.338Z,99181.97
2022-11-18T03:10:02.243Z,99190.56
2022-11-18T03:12:39.843Z,99194.88
2022-11-18T03:15:21.172Z,99196.41
2022-11-18T03:18:00.122Z,99197.09
2022-11-18T03:20:30.166Z,99205.56
2022-11-18T03:23:05.096Z,99206.94
2022-11-18T03:25:42.997Z,99209.28
2022-11-18T03:28:19.142Z,99220.41
2022-11-18T03:30:55.774Z,99218.28
2022-11-18T03:33:31.234Z,99215.53
2022-11-18T03:36:02.102Z,99229.25
2022-11-18T03:38:35.124Z,99225.50
2022-11-18T03:41:07.068Z,99234.09
2022-11-18T03:43:39.104Z,99239.09
2022-11-18T03:46:16.575Z,99231.06
2022-11-18T03:48:50.174Z,99236.03
2022-11-18T03:51:21.630Z,99235.91
2022-11-18T03:53:56.900Z,99237.56
2022-11-18T03:56:30.571Z,99233.94
2022-11-18T03:59:10.435Z,99246.84
2022-11-18T04:01:44.866Z,99237.13
2022-11-18T04:04:38.048Z,99244.09
2022-11-18T04:07:12.482Z,99243.94
2022-11-18T04:09:52.137Z,99248.91
2022-11-18T04:12:22.648Z,99252.94
2022-11-18T04:14:55.260Z,99256.28
2022-11-18T04:17:28.350Z,99254.22
2022-11-18T04:19:56.331Z,99263.50
2022-11-18T04:22:24.171Z,99260.56
2022-11-18T04:24:53.568Z,99261.97
2022-11-18T04:27:21.097Z,99265.97
2022-11-18T04:29:48.889Z,99261.22
2022-11-18T04:32:16.495Z,99264.44
2022-11-18T04:34:45.364Z,99270.22
2022-11-18T04:37:13.139Z,99264.69
2022-11-18T04:39:42.097Z,99267.88
2022-11-18T04:42:35.619Z,99268.38
2022-11-18T04:45:03.328Z,99269.94
2022-11-18T04:47:30.863Z,99267.97
2022-11-18T04:49:59.960Z,99271.16
2022-11-18T04:52:28.170Z,99283.22
2022-11-18T04:54:56.559Z,99275.97
2022-11-18T04:57:26.207Z,99281.16
2022-11-18T04:59:57.143Z,99279.19
2022-11-18T05:02:25.191Z,99285.97
2022-11-18T05:04:53.580Z,99290.13
2022-11-18T05:07:24.144Z,99298.91
2022-11-18T05:09:52.024Z,99308.22
2022-11-18T05:12:38.961Z,99305.41
2022-11-18T05:15:08.182Z,99312.34
2022-11-18T05:17:37.733Z,99306.09
2022-11-18T05:20:06.004Z,99304.28
2022-11-18T05:22:36.827Z,99312.75
2022-11-18T05:25:04.662Z,99320.53
2022-11-18T05:27:33.209Z,99315.91
2022-11-18T05:30:01.706Z,99321.91
2022-11-18T05:32:29.275Z,99329.69
2022-11-18T05:34:56.854Z,99329.53
2022-11-18T05:37:24.398Z,99326.75
2022-11-18T05:39:54.087Z,99325.06
2022-11-18T05:42:39.313Z,99336.47
2022-11-18T05:45:07.739Z,99330.34
2022-11-18T05:47:55.218Z,99338.44
2022-11-18T05:50:23.132Z,99341.91
2022-11-18T05:52:54.501Z,99342.75
2022-11-18T05:55:28.236Z,99344.56
2022-11-18T05:57:55.753Z,99355.13
2022-11-18T06:00:24.184Z,99355.94
2022-11-18T06:02:55.197Z,99360.25
2022-11-18T06:05:25.449Z,99361.13
2022-11-18T06:07:58.589Z,99361.94
2022-11-18T06:10:33.872Z,99362.78
2022-11-18T06:15:58.916Z,99377.81
2022-11-18T06:18:29.721Z,99385.72
2022-11-18T06:21:00.636Z,99388.38
2022-11-18T06:23:31.643Z,99397.13
2022-11-18T06:26:04.160Z,99399.78
2022-11-18T06:28:34.135Z,99401.44
2022-11-18T06:31:01.984Z,99405.91
2022-11-18T06:33:29.581Z,99411.19
2022-11-18T06:35:57.240Z,99412.16
2022-11-18T06:38:25.932Z,99414.09
2022-11-18T06:43:48.117Z,99424.00
2022-11-18T06:46:35.010Z,99429.28
2022-11-18T06:49:03.215Z,99424.97
2022-11-18T06:51:31.185Z,99434.72
2022-11-18T06:54:02.014Z,99434.72
2022-11-18T06:56:31.606Z,99445.13
2022-11-18T06:59:00.600Z,99443.31
2022-11-18T07:01:30.298Z,99439.69
2022-11-18T07:03:59.956Z,99448.47
2022-11-18T07:06:30.251Z,99454.47
2022-11-18T07:09:01.123Z,99463.22
2022-11-18T07:11:30.068Z,99461.25
2022-11-18T07:13:57.681Z,99457.63
2022-11-18T07:16:28.218Z,99470.41
2022-11-18T07:18:57.895Z,99466.78
2022-11-18T07:21:31.243Z,99479.03
2022-11-18T07:26:53.191Z,99484.03
2022-11-18T07:32:16.288Z,99491.56
2022-11-18T07:34:45.032Z,99494.03
2022-11-18T07:37:12.674Z,99496.53
2022-11-18T07:39:40.210Z,99502.50
2022-11-18T07:42:07.737Z,99505.03
2022-11-18T07:44:36.196Z,99506.69
2022-11-18T07:47:10.163Z,99509.19
2022-11-18T07:49:40.990Z,99509.88
2022-11-18T07:52:08.589Z,99510.72
2022-11-18T07:54:36.279Z,99516.84
2022-11-18T07:57:03.955Z,99520.16
2022-11-18T07:59:31.616Z,99518.34
2022-11-18T08:02:00.027Z,99524.31
2022-11-18T08:04:54.880Z,99523.38
2022-11-18T08:07:24.316Z,99524.03
2022-11-18T08:10:17.780Z,99531.84
2022-11-18T08:12:45.375Z,99533.50
2022-11-18T08:15:13.597Z,99531.56
2022-11-18T08:17:41.226Z,99538.34
2022-11-18T08:20:11.599Z,99539.19
2022-11-18T08:22:40.109Z,99544.19
2022-11-18T08:25:33.470Z,99550.19
2022-11-18T08:28:02.252Z,99551.84
2022-11-18T08:30:31.783Z,99554.34
2022-11-18T08:33:03.145Z,99557.53
2022-11-18T08:35:34.106Z,99561.72
2022-11-18T08:38:01.737Z,99564.22
2022-11-18T08:40:29.372Z,99561.41
2022-11-18T08:42:57.593Z,99561.25
2022-11-18T08:45:25.182Z,99562.94
2022-11-18T08:47:52.748Z,99561.97
2022-11-18T08:50:20.390Z,99569.75
2022-11-18T08:52:50.948Z,99578.38
2022-11-18T08:55:18.705Z,99571.13
2022-11-18T08:57:47.806Z,99571.81
2022-11-18T09:00:16.497Z,99564.56
2022-11-18T09:02:44.334Z,99560.97
2022-11-18T09:05:12.009Z,99575.69
2022-11-18T09:07:39.722Z,99570.25
2022-11-18T09:10:10.007Z,99577.09
2022-11-18T09:12:37.692Z,99585.69
2022-11-18T09:15:13.265Z,99578.75
2022-11-18T09:17:41.645Z,99586.53
2022-11-18T09:20:12.142Z,99589.84
2022-11-18T09:23:03.726Z,99601.16
2022-11-18T09:25:36.227Z,99592.91
2022-11-18T09:28:04.097Z,99592.78
2022-11-18T09:30:31.807Z,99590.81
2022-11-18T09:33:02.119Z,99594.13
2022-11-18T09:35:32.142Z,99597.34
2022-11-18T09:37:59.726Z,99599.00
2022-11-18T09:40:28.713Z,99601.38
2022-11-18T09:43:07.192Z,99608.31
2022-11-18T09:45:40.147Z,99606.34
2022-11-18T09:48:17.553Z,99613.47
2022-11-18T09:50:50.724Z,99614.16
2022-11-18T09:53:21.222Z,99614.84
2022-11-18T09:55:50.536Z,99613.72
2022-11-18T09:58:34.866Z,99619.56
2022-11-18T10:01:04.635Z,99621.22
2022-11-18T10:03:34.307Z,99629.00
2022-11-18T10:06:16.905Z,99631.50
2022-11-18T10:09:00.268Z,99637.34
2022-11-18T10:11:32.989Z,99639.84
2022-11-18T10:14:19.953Z,99642.34
2022-11-18T10:16:59.083Z,99646.53
2022-11-18T10:19:35.143Z,99646.53
2022-11-18T10:22:23.826Z,99653.50
2022-11-18T10:24:55.131Z,99655.16
2022-11-18T10:27:28.255Z,99661.16
2022-11-18T10:29:58.937Z,99659.34
2022-11-18T10:32:26.641Z,99661.84
2022-11-18T10:34:56.313Z,99665.31
2022-11-18T10:37:45.385Z,99669.63
2022-11-18T10:40:28.226Z,99674.78
2022-11-18T10:42:56.885Z,99683.59
2022-11-18T10:45:32.145Z,99674.50
2022-11-18T10:48:09.248Z,99678.81
2022-11-18T10:50:40.137Z,99675.03
2022-11-18T10:53:31.218Z,99679.19
2022-11-18T10:55:59.806Z,99677.69
2022-11-18T10:58:29.860Z,99682.84
2022-11-18T11:01:09.210Z,99682.69
2022-11-18T11:04:09.429Z,99686.84
2022-11-18T11:06:39.819Z,99682.41
2022-11-18T11:09:10.876Z,99680.44
2022-11-18T11:11:43.149Z,99684.59
2022-11-18T11:14:22.677Z,99677.50
2022-11-18T11:16:59.806Z,99682.53
2022-11-18T11:19:35.335Z,99676.22
2022-11-18T11:22:05.108Z,99684.03
2022-11-18T11:24:34.188Z,99689.03
2022-11-18T11:30:15.954Z,99689.28
2022-11-18T11:33:01.887Z,99694.31
2022-11-18T11:35:36.316Z,99693.31
2022-11-18T11:38:17.937Z,99689.69
2022-11-18T11:41:00.362Z,99689.34
2022-11-18T11:43:43.412Z,99694.53
2022-11-18T11:46:28.889Z,99700.50
2022-11-18T11:49:17.592Z,99696.88
2022-11-18T11:51:52.299Z,99704.66
2022-11-18T11:54:37.205Z,99702.00
2022-11-18T11:57:07.348Z,99700.91
2022-11-18T11:59:47.064Z,99704.94
2022-11-18T12:02:39.836Z,99705.75
2022-11-18T12:05:21.221Z,99702.13
2022-11-18T12:07:55.148Z,99710.75
2022-11-18T12:10:54.493Z,99713.13
2022-11-18T12:13:34.174Z,99712.81
2022-11-18T12:16:10.189Z,99716.28
2022-11-18T12:18:43.401Z,99713.50
2022-11-18T12:21:55.562Z,99711.69
2022-11-18T12:24:36.439Z,99719.47
2022-11-18T12:27:07.159Z,99718.81
2022-11-18T12:29:43.047Z,99718.81
2022-11-18T12:32:28.119Z,99726.78
2022-11-18T12:35:05.331Z,99726.38
2022-11-18T12:37:45.348Z,99727.81
2022-11-18T12:40:36.184Z,99729.91
2022-11-18T12:43:22.248Z,99739.28
2022-11-18T12:45:55.950Z,99737.63
2022-11-18T12:48:35.297Z,99742.25
2022-11-18T12:51:06.214Z,99745.03
2022-11-18T12:53:39.581Z,99741.84
2022-11-18T12:56:23.217Z,99749.25
2022-11-18T12:58:54.156Z,99744.41
2022-11-18T13:01:24.005Z,99742.88
2022-11-18T13:03:53.249Z,99751.00
2022-11-18T13:06:29.169Z,99754.47
2022-11-18T13:09:01.577Z,99763.53
2022-11-18T13:11:45.926Z,99771.63
2022-11-18T13:14:37.223Z,99765.66
2022-11-18T13:17:42.066Z,99772.91
2022-11-18T13:20:21.042Z,99769.69
2022-11-18T13:23:10.203Z,99774.28
2022-11-18T13:25:42.385Z,99779.59
2022-11-18T13:28:19.935Z,99775.16
2022-11-18T13:30:53.249Z,99777.66
2022-11-18T13:33:21.165Z,99774.84
2022-11-18T13:36:18.265Z,99784.88
2022-11-18T13:38:56.841Z,99777.09
2022-11-18T13:41:33.117Z,99778.06
2022-11-18T13:44:13.073Z,99780.03
2022-11-18T13:46:42.605Z,99789.66
2022-11-18T13:49:17.948Z,99788.13
2022-11-18T13:51:47.086Z,99796.22
2022-11-18T13:54:21.486Z,99791.06
2022-11-18T13:56:50.490Z,99794.84
2022-11-18T13:59:20.982Z,99799.28
2022-11-18T14:01:55.113Z,99799.59
2022-11-18T14:04:25.953Z,99798.34
2022-11-18T14:06:54.190Z,99807.03
2022-11-18T14:09:25.941Z,99807.44
2022-11-18T14:12:04.140Z,99817.47
2022-11-18T14:14:33.984Z,99809.00
2022-11-18T14:17:07.017Z,99817.91
2022-11-18T14:19:42.034Z,99814.97
2022-11-18T14:22:16.167Z,99819.03
2022-11-18T14:24:46.018Z,99816.81
2022-11-18T14:27:37.262Z,99815.56
2022-11-18T14:30:27.146Z,99816.81
2022-11-18T14:33:20.471Z,99829.38
2022-11-18T14:35:58.069Z,99831.28
2022-11-18T14:41:44.770Z,99837.69
2022-11-18T14:44:15.515Z,99839.09
2022-11-18T14:46:52.202Z,99836.16
2022-11-18T14:49:22.950Z,99833.38
2022-11-18T14:51:52.142Z,99841.16
2022-11-18T14:54:26.479Z,99843.38
2022-11-18T14:56:58.265Z,99844.75
2022-11-18T14:59:52.736Z,99853.34
2022-11-18T15:02:20.340Z,99845.72
2022-11-18T15:04:48.484Z,99855.59
2022-11-18T15:07:23.515Z,99856.97
2022-11-18T15:09:51.802Z,99865.44
2022-11-18T15:12:19.667Z,99866.91
2022-11-18T15:14:47.274Z,99869.97
2022-11-18T15:17:16.205Z,99874.09
2022-11-18T15:19:44.573Z,99876.44
2022-11-18T15:22:12.335Z,99878.38
2022-11-18T15:24:40.782Z,99883.50
2022-11-18T15:27:10.403Z,99885.78
2022-11-18T15:29:41.189Z,99895.06
2022-11-18T15:32:09.608Z,99893.69
2022-11-18T15:34:38.504Z,99902.81
2022-11-18T15:37:07.168Z,99908.47
2022-11-18T15:39:36.198Z,99917.66
2022-11-18T15:42:06.630Z,99915.63
2022-11-18T15:44:34.682Z,99909.78
2022-11-18T15:47:03.173Z,99911.00
2022-11-18T15:49:31.777Z,99919.06
2022-11-18T15:52:00.830Z,99913.31
2022-11-18T15:54:29.255Z,99920.88
2022-11-18T15:56:59.210Z,99915.13
2022-11-18T15:59:27.152Z,99922.59
2022-11-18T16:01:56.707Z,99931.00
2022-11-18T16:04:26.306Z,99928.72
2022-11-18T16:06:54.430Z,99929.38
2022-11-18T16:09:23.387Z,99929.63
2022-11-18T16:15:18.180Z,99934.31
2022-11-18T16:17:46.183Z,99939.81
2022-11-18T16:20:13.800Z,99943.41
2022-11-18T16:22:41.430Z,99942.94
2022-11-18T16:25:10.772Z,99948.94
2022-11-18T16:27:38.405Z,99953.75
2022-11-18T16:30:06.776Z,99956.63
2022-11-18T16:32:35.167Z,99956.63
2022-11-18T16:35:07.034Z,99949.81
2022-11-18T16:37:35.556Z,99957.00
2022-11-18T16:40:03.138Z,99955.22
2022-11-18T16:42:32.332Z,99965.75
2022-11-18T16:44:59.990Z,99971.88
2022-11-18T16:47:27.507Z,99975.47
2022-11-18T16:49:55.207Z,99973.78
2022-11-18T16:52:22.715Z,99982.66
2022-11-18T16:54:51.156Z,99976.78
2022-11-18T16:57:18.776Z,99973.69
2022-11-18T16:59:47.787Z,99990.94
2022-11-18T17:02:15.728Z,99985.19
2022-11-18T17:04:44.252Z,99998.72
2022-11-18T17:07:11.864Z,100005.31
2022-11-18T17:09:41.497Z,100006.41
2022-11-18T17:12:09.320Z,100017.88
2022-11-18T17:14:38.210Z,100011.88
2022-11-18T17:17:08.514Z,100016.44
2022-11-18T17:19:37.629Z,100024.69
2022-11-18T17:22:06.194Z,100019.91
2022-11-18T17:24:33.765Z,100021.84
2022-11-18T17:27:01.378Z,100032.47
2022-11-18T17:29:29.818Z,100046.84
2022-11-18T17:31:57.618Z,100036.53
2022-11-18T17:34:26.472Z,100039.16
2022-11-18T17:36:54.132Z,100040.47
2022-11-18T17:39:21.772Z,100044.28
2022-11-18T17:42:08.145Z,100052.28
2022-11-18T17:44:36.839Z,100051.47
2022-11-18T17:47:04.484Z,100042.84
2022-11-18T17:49:34.192Z,100039.84
2022-11-18T17:52:01.785Z,100047.81
2022-11-18T17:54:29.388Z,100056.09
2022-11-18T17:56:56.930Z,100062.41
2022-11-18T17:59:24.625Z,100077.50
2022-11-18T18:01:58.842Z,100080.13
2022-11-18T18:04:26.787Z,100086.56
2022-11-18T18:06:56.362Z,100082.38
2022-11-18T18:09:29.958Z,100085.84
2022-11-18T18:12:00.298Z,100083.34
2022-11-18T18:14:27.235Z,100080.78
2022-11-18T18:16:55.005Z,100085.22
2022-11-18T18:19:24.052Z,100083.03
2022-11-18T18:22:16.086Z,100086.34
2022-11-18T18:24:45.069Z,100095.41
2022-11-18T18:27:12.626Z,100094.78
2022-11-18T18:29:40.186Z,100097.78
2022-11-18T18:35:00.070Z,100109.47
2022-11-18T18:37:31.144Z,100111.25
2022-11-18T18:40:00.027Z,100108.63
2022-11-18T18:42:28.162Z,100109.47
2022-11-18T18:45:13.624Z,100109.78
2022-11-18T18:47:41.339Z,100120.44
2022-11-18T18:50:09.127Z,100122.94
2022-11-18T18:52:36.775Z,100124.09
2022-11-18T18:55:06.615Z,100124.97
2022-11-18T18:57:34.365Z,100129.28
2022-11-18T19:00:03.239Z,100136.34
2022-11-18T19:02:33.228Z,100145.28
2022-11-18T19:05:01.193Z,100147.06
2022-11-18T19:07:31.272Z,100156.94
2022-11-18T19:09:59.169Z,100152.56
2022-11-18T19:12:44.124Z,100156.94
2022-11-18T19:15:13.650Z,100163.59
2022-11-18T19:17:42.374Z,100156.78
2022-11-18T19:20:30.686Z,100161.06
2022-11-18T19:23:08.629Z,100161.81
2022-11-18T19:25:38.175Z,100158.56
2022-11-18T19:28:08.126Z,100156.47
2022-11-18T19:30:41.722Z,100161.72
2022-11-18T19:33:10.774Z,100159.91
2022-11-18T19:35:38.662Z,100169.94
2022-11-18T19:38:07.150Z,100166.88
2022-11-18T19:40:36.236Z,100173.19
2022-11-18T19:43:03.970Z,100171.41
2022-11-18T19:45:33.519Z,100179.59
2022-11-18T19:48:01.709Z,100186.75
2022-11-18T19:50:29.448Z,100177.91
2022-11-18T19:52:57.321Z,100183.47
2022-11-18T19:55:24.880Z,100188.00
2022-11-18T19:57:52.744Z,100197.88
2022-11-18T20:00:21.189Z,100186.53
2022-11-18T20:02:53.501Z,100194.09
2022-11-18T20:05:42.204Z,100189.91
2022-11-18T20:08:12.785Z,100198.69
2022-11-18T20:10:40.351Z,100199.53
2022-11-18T20:13:07.965Z,100197.66
2022-11-18T20:15:36.532Z,100190.50
2022-11-18T20:18:06.164Z,100205.41
2022-11-18T20:20:34.837Z,100203.31
2022-11-18T20:23:02.987Z,100209.19
2022-11-18T20:25:31.267Z,100211.38
2022-11-18T20:27:58.862Z,100213.06
2022-11-18T20:30:26.487Z,100210.53
2022-11-18T20:32:54.417Z,100209.81
2022-11-18T20:35:24.014Z,100215.78
2022-11-18T20:37:51.644Z,100212.44
2022-11-18T20:40:20.606Z,100213.66
2022-11-18T20:43:05.993Z,100221.19
2022-11-18T20:45:33.938Z,100214.53
2022-11-18T20:48:01.874Z,100226.28
2022-11-18T20:50:31.269Z,100220.41
2022-11-18T20:52:58.805Z,100228.56
2022-11-18T20:55:27.163Z,100228.78
2022-11-18T20:57:54.717Z,100232.44
2022-11-18T21:00:22.583Z,100236.94
2022-11-18T21:02:51.136Z,100226.63
2022-11-18T21:05:19.725Z,100236.19
2022-11-18T21:07:50.666Z,100229.53
2022-11-18T21:10:19.202Z,100233.94
2022-11-18T21:13:04.156Z,100232.16
2022-11-18T21:15:31.771Z,100231.63
2022-11-18T21:17:59.277Z,100229.84
2022-11-18T21:20:48.323Z,100233.22
2022-11-18T21:23:17.250Z,100246.34
2022-11-18T21:25:45.554Z,100242.53
2022-11-18T21:28:14.160Z,100241.84
2022-11-18T21:30:41.934Z,100248.03
2022-11-18T21:33:09.532Z,100244.75
2022-11-18T21:35:37.240Z,100243.19
2022-11-18T21:38:05.761Z,100240.94
2022-11-18T21:40:34.684Z,100251.22
2022-11-18T21:43:03.212Z,100252.00
2022-11-18T21:45:30.797Z,100263.50
2022-11-18T21:47:59.141Z,100272.16
2022-11-18T21:50:28.204Z,100270.44
2022-11-18T21:52:55.800Z,100272.16
2022-11-18T21:55:23.668Z,100273.06
2022-11-18T21:57:52.571Z,100272.03
2022-11-18T22:00:20.410Z,100272.88
2022-11-18T22:02:47.941Z,100269.59
2022-11-18T22:05:15.712Z,100277.47
2022-11-18T22:07:43.297Z,100278.31
2022-11-18T22:10:11.646Z,100286.19
2022-11-18T22:12:39.122Z,100283.66
2022-11-18T22:15:09.810Z,100289.19
2022-11-18T22:17:37.578Z,100290.91
2022-11-18T22:20:06.137Z,100291.63
2022-11-18T22:22:34.692Z,100286.13
2022-11-18T22:25:02.325Z,100297.34
2022-11-18T22:27:30.216Z,100293.97
2022-11-18T22:29:58.636Z,100291.63
2022-11-18T22:32:27.648Z,100292.66
2022-11-18T22:34:55.212Z,100289.19
2022-11-18T22:37:23.170Z,100301.41
2022-11-18T22:39:51.204Z,100296.97
2022-11-18T22:42:37.728Z,100289.94
2022-11-18T22:45:06.630Z,100299.88
2022-11-18T22:47:35.485Z,100305.22
2022-11-18T22:50:03.379Z,100298.19
2022-11-18T22:52:30.896Z,100300.06
2022-11-18T22:54:59.220Z,100299.97
2022-11-18T22:57:26.824Z,100306.06
2022-11-18T22:59:54.640Z,100308.03
2022-11-18T23:02:23.645Z,100313.47
2022-11-18T23:04:52.928Z,100316.00
2022-11-18T23:07:20.586Z,100308.13
2022-11-18T23:09:48.293Z,100312.59
2022-11-18T23:12:33.591Z,100313.47
2022-11-18T23:15:01.146Z,100307.28
2022-11-18T23:17:28.685Z,100318.16
2022-11-18T23:19:57.872Z,100313.84
2022-11-18T23:22:25.489Z,100319.84
2022-11-18T23:24:53.080Z,100326.00
2022-11-18T23:27:20.653Z,100323.47
2022-11-18T23:29:48.317Z,100321.72
2022-11-18T23:32:15.966Z,100326.00
2022-11-18T23:34:43.459Z,100332.09
2022-11-18T23:37:12.397Z,100330.59
2022-11-18T23:39:41.556Z,100338.34
2022-11-18T23:42:09.113Z,100334.25
2022-11-18T23:44:47.139Z,100330.94
2022-11-18T23:47:15.929Z,100337.03
2022-11-18T23:49:44.141Z,100342.28
2022-11-18T23:52:41.497Z,100345.66
2022-11-18T23:55:10.103Z,100339.94
2022-11-18T23:57:37.699Z,100351.94
